Time;durP1;ratioP1;P1;durP2;ratioP2;P2;SDS_P1;SDS_P2;PMS_P1;PMS_P2;Temp;Humidity;BMP_temperature;BMP_pressure;BME280_temperature;BME280_humidity;BME280_pressure;Samples;Min_cycle;Max_cycle;Signal;HPM_P1;HPM_P2
2022/01/07 00:00:20;;;;;;;7.27;5.23;;;4.00;82.80;;;4.36;56.84;99082.91;4947374;28;114734;-83
2022/01/07 00:02:53;;;;;;;11.70;5.60;;;4.30;83.10;;;4.31;57.37;99083.69;4951217;28;113756;-85
2022/01/07 00:05:21;;;;;;;11.03;4.90;;;4.10;82.90;;;4.28;57.75;99075.19;4966670;28;124029;-82
2022/01/07 00:07:47;;;;;;;7.93;4.73;;;4.80;83.60;;;4.22;57.45;99068.88;4950547;28;123719;-85
2022/01/07 00:10:17;;;;;;;9.00;4.93;;;3.80;82.70;;;4.18;57.02;99078.69;4958085;28;114001;-82
2022/01/07 00:12:47;;;;;;;11.53;4.13;;;3.80;82.80;;;4.13;57.63;99074.00;4960879;28;114046;-84
2022/01/07 00:15:15;;;;;;;9.10;4.57;;;3.80;82.90;;;4.10;57.66;99063.59;4944838;28;123775;-83
2022/01/07 00:17:45;;;;;;;7.20;4.53;;;4.00;83.20;;;4.13;57.21;99060.31;4969059;28;122964;-85
2022/01/07 00:20:13;;;;;;;4.03;3.43;;;3.70;83.00;;;4.11;57.51;99059.78;4951493;28;115199;-83
2022/01/07 00:22:44;;;;;;;7.23;4.63;;;3.70;83.00;;;4.11;57.62;99053.47;4956773;28;115012;-85
2022/01/07 00:25:12;;;;;;;5.97;3.90;;;3.70;83.10;;;4.10;57.42;99047.19;4943284;28;123273;-85
2022/01/07 00:27:40;;;;;;;6.90;3.80;;;3.70;83.10;;;4.12;57.41;99046.94;4962032;28;123623;-84
2022/01/07 00:30:11;;;;;;;6.90;3.80;;;3.70;83.10;;;4.14;57.36;99044.78;4954337;28;114191;-84
2022/01/07 00:32:38;;;;;;;9.27;5.17;;;3.70;83.10;;;4.13;57.26;99035.72;4950599;28;113729;-85
2022/01/07 00:35:07;;;;;;;8.83;4.40;;;3.70;83.10;;;4.15;57.09;99032.72;4942365;28;123989;-87
2022/01/07 00:37:34;;;;;;;7.70;4.40;;;3.70;83.20;;;4.16;57.50;99039.84;4948393;28;123147;-85
2022/01/07 00:40:01;;;;;;;5.37;3.90;;;3.70;83.20;;;4.17;57.13;99031.38;4950588;28;114021;-85
2022/01/07 00:42:28;;;;;;;8.17;4.37;;;3.70;83.20;;;4.18;56.85;99024.81;4953525;28;113956;-85
2022/01/07 00:44:54;;;;;;;6.60;4.30;;;3.70;83.20;;;4.16;57.12;99029.75;4957705;28;123782;-83
2022/01/07 00:47:21;;;;;;;8.20;4.70;;;3.70;83.20;;;4.16;57.67;99034.38;4954800;28;122761;-84
2022/01/07 00:49:48;;;;;;;5.50;3.50;;;3.70;83.20;;;4.15;57.01;99033.53;4950641;28;114228;-82
2022/01/07 00:52:16;;;;;;;8.00;4.47;;;3.70;83.30;;;4.13;57.13;99032.97;4950477;28;113842;-84
2022/01/07 00:54:43;;;;;;;8.73;4.40;;;3.70;83.20;;;4.13;57.20;99032.97;4952754;28;122193;-85
2022/01/07 00:57:11;;;;;;;9.00;4.00;;;3.60;83.20;;;4.12;57.38;99028.63;4952282;28;123638;-86
2022/01/07 00:59:39;;;;;;;4.70;3.70;;;3.70;83.20;;;4.12;57.23;99023.16;4951338;28;114304;-85
2022/01/07 01:02:06;;;;;;;6.50;4.30;;;3.60;83.10;;;4.13;57.44;99029.44;4954448;28;113579;-84
2022/01/07 01:04:32;;;;;;;7.10;4.30;;;3.60;83.20;;;4.11;57.17;99026.13;4950227;28;123954;-84
2022/01/07 01:07:02;;;;;;;6.10;4.90;;;3.60;83.10;;;4.09;57.30;99023.69;4949960;28;123888;-86
2022/01/07 01:09:29;;;;;;;7.50;5.30;;;3.60;83.10;;;4.07;56.90;99020.38;4952388;28;114974;-86
2022/01/07 01:11:57;;;;;;;6.50;4.83;;;3.60;83.10;;;4.08;57.02;99015.72;4956531;28;112971;-86
2022/01/07 01:14:23;;;;;;;5.27;3.80;;;3.60;83.10;;;4.09;57.28;99011.94;4950159;28;123451;-84
2022/01/07 01:16:51;;;;;;;6.80;4.00;;;3.60;83.10;;;4.10;56.96;99008.09;4950909;28;123719;-86
2022/01/07 01:19:18;;;;;;;6.50;4.13;;;3.60;83.20;;;4.13;56.81;99010.28;4974086;28;112570;-83
2022/01/07 01:21:45;;;;;;;8.90;4.03;;;3.60;83.20;;;4.12;57.39;99008.66;4962916;28;113869;-85
2022/01/07 01:24:11;;;;;;;7.13;4.27;;;3.60;83.10;;;4.13;57.52;99007.56;4952175;28;124538;-82
2022/01/07 01:26:37;;;;;;;6.30;4.50;;;3.60;83.10;;;4.12;57.03;99011.38;4951042;28;123774;-84
2022/01/07 01:29:04;;;;;;;8.80;5.00;;;3.60;83.00;;;4.09;56.85;99006.47;4950653;28;114160;-85
2022/01/07 01:31:32;;;;;;;9.60;5.00;;;3.60;83.60;;;4.06;56.77;99004.25;4950488;28;113936;-85
2022/01/07 01:33:59;;;;;;;7.10;5.00;;;3.60;83.00;;;4.02;57.31;99001.22;4937454;28;124066;-85
2022/01/07 01:36:25;;;;;;;9.90;4.47;;;3.60;83.00;;;4.01;56.84;99010.50;4964172;28;123000;-85
2022/01/07 01:38:52;;;;;;;9.63;4.77;;;3.60;83.00;;;3.99;57.09;99005.28;4939995;28;114156;-84
2022/01/07 01:41:19;;;;;;;7.23;4.07;;;3.50;82.90;;;3.95;57.25;99001.47;4950848;28;113378;-85
2022/01/07 01:43:48;;;;;;;5.33;3.53;;;3.50;82.80;;;3.94;57.20;99008.00;4932605;28;124026;-80
2022/01/07 01:46:16;;;;;;;16.07;4.10;;;4.40;83.70;;;3.95;56.97;99003.38;4951159;28;125461;-84
2022/01/07 01:48:45;;;;;;;7.67;4.30;;;2.50;82.10;;;3.93;57.24;98998.16;4954225;28;114555;-85
2022/01/07 01:51:14;;;;;;;12.50;4.90;;;3.50;83.00;;;3.90;56.94;98995.13;4951840;28;113078;-84
2022/01/07 01:53:41;;;;;;;7.67;4.77;;;3.40;82.90;;;3.83;57.09;99000.81;4953154;28;123815;-85
2022/01/07 01:56:08;;;;;;;9.33;4.23;;;3.40;82.90;;;3.79;57.06;99002.44;4949796;28;123557;-85
2022/01/07 01:58:35;;;;;;;9.40;4.23;;;3.40;82.90;;;3.75;57.28;99001.31;4980592;28;114591;-82
2022/01/07 02:01:03;;;;;;;7.97;4.13;;;3.30;82.80;;;3.72;57.17;98991.72;4957206;28;115314;-85
2022/01/07 02:03:30;;;;;;;8.87;5.40;;;3.30;82.80;;;3.72;57.42;98993.66;4949728;28;124090;-85
2022/01/07 02:05:57;;;;;;;5.70;4.60;;;3.30;82.90;;;3.72;57.54;98993.66;4956656;28;123655;-86
2022/01/07 02:08:24;;;;;;;7.27;4.33;;;3.30;83.00;;;3.71;57.89;98978.34;4955427;28;114072;-81
2022/01/07 02:10:51;;;;;;;6.27;4.13;;;3.30;83.00;;;3.70;57.47;98977.50;4950074;28;114041;-80
2022/01/07 02:13:18;;;;;;;6.33;4.33;;;3.20;83.70;;;3.71;57.43;98970.16;4957277;28;123320;-81
2022/01/07 02:15:45;;;;;;;6.80;4.40;;;3.20;83.10;;;3.72;57.38;98963.59;4953011;28;122865;-84
2022/01/07 02:18:12;;;;;;;5.70;3.93;;;3.40;83.30;;;3.73;57.20;98965.22;4954775;28;114263;-82
2022/01/07 02:20:40;;;;;;;7.23;4.60;;;3.20;83.10;;;3.71;57.49;98968.22;4945862;28;113967;-85
2022/01/07 02:23:07;;;;;;;8.97;4.60;;;3.30;83.20;;;3.70;57.62;98954.81;4951828;28;123167;-85
2022/01/07 02:25:35;;;;;;;7.20;4.63;;;3.20;83.10;;;3.69;57.27;98955.91;4951810;28;121835;-85
2022/01/07 02:28:21;;;;;;;9.70;5.13;;;3.20;83.10;;;3.70;57.23;98960.28;4948502;28;113964;-84
2022/01/07 02:30:48;;;;;;;10.03;5.20;;;3.20;83.10;;;3.64;57.38;98953.16;4956907;28;113311;-85
2022/01/07 02:33:33;;;;;;;8.67;4.60;;;3.20;83.00;;;3.65;57.33;98952.06;4947494;28;123093;-86
2022/01/07 02:36:10;;;;;;;10.87;5.33;;;3.20;83.10;;;3.62;57.48;98949.84;4948282;28;123752;-85
2022/01/07 02:38:37;;;;;;;6.90;4.50;;;3.10;83.10;;;3.59;57.40;98956.66;4978499;28;114449;-84
2022/01/07 02:41:04;;;;;;;10.70;4.60;;;3.10;83.10;;;3.59;57.38;98948.47;4933860;28;113487;-86
2022/01/07 02:43:33;;;;;;;8.50;4.93;;;3.20;83.20;;;3.60;57.57;98952.03;4948924;28;123315;-84
2022/01/07 02:46:00;;;;;;;9.10;4.80;;;3.10;83.10;;;3.59;57.62;98959.41;4953371;28;124048;-83
2022/01/07 02:48:26;;;;;;;6.47;4.40;;;3.10;83.10;;;3.58;57.44;98960.50;4948971;28;115250;-85
2022/01/07 02:50:53;;;;;;;7.47;4.63;;;3.10;83.10;;;3.56;57.45;98956.38;4949712;28;114183;-85
2022/01/07 02:53:19;;;;;;;8.30;5.20;;;3.10;83.10;;;3.55;57.49;98952.84;4954753;28;124163;-86
2022/01/07 02:56:06;;;;;;;8.20;4.47;;;3.10;83.10;;;3.54;57.26;98949.25;4954343;28;123602;-85
2022/01/07 02:58:32;;;;;;;8.43;4.30;;;3.10;83.10;;;3.49;57.21;98953.84;4943491;28;114261;-86
2022/01/07 03:00:59;;;;;;;10.13;5.37;;;3.10;83.00;;;3.47;57.11;98956.88;4957381;28;112935;-84
2022/01/07 03:03:27;;;;;;;9.30;4.80;;;3.20;83.10;;;3.46;57.15;98946.19;4953577;28;124084;-86
2022/01/07 03:05:54;;;;;;;8.87;4.97;;;3.10;83.10;;;3.47;57.37;98951.41;4951855;28;124085;-86
2022/01/07 03:08:22;;;;;;;9.83;5.27;;;3.00;83.00;;;3.48;57.05;98941.28;4964213;28;114325;-84
2022/01/07 03:11:07;;;;;;;8.90;4.83;;;3.00;83.00;;;3.51;57.49;98947.06;4959307;28;113913;-84
2022/01/07 03:13:33;;;;;;;8.17;5.43;;;1.80;82.00;;;3.48;57.32;98938.56;4941549;28;123657;-84
2022/01/07 03:16:00;;;;;;;7.03;4.63;;;3.00;83.00;;;3.47;57.11;98945.94;4952697;28;123704;-84
2022/01/07 03:18:26;;;;;;;11.77;4.40;;;3.00;83.00;;;3.47;57.54;98945.13;4951359;28;114327;-85
2022/01/07 03:20:53;;;;;;;6.60;4.77;;;3.00;83.00;;;3.48;57.54;98942.13;4965099;28;113243;-85
2022/01/07 03:23:19;;;;;;;6.50;4.97;;;3.00;83.10;;;3.50;57.37;98950.06;4952045;28;124165;-83
2022/01/07 03:25:46;;;;;;;5.53;4.33;;;3.80;83.80;;;3.50;57.09;98950.88;4970301;28;121813;-84
2022/01/07 03:28:13;;;;;;;9.00;5.03;;;3.10;83.20;;;3.51;57.20;98951.69;4949173;28;113346;-86
2022/01/07 03:30:42;;;;;;;8.80;4.83;;;3.00;83.10;;;3.49;57.43;98949.25;4984912;28;113656;-85
2022/01/07 03:33:09;;;;;;;6.20;4.00;;;3.00;83.00;;;3.48;57.13;98936.66;4947287;28;123224;-85
2022/01/07 03:35:36;;;;;;;9.63;5.13;;;3.10;83.10;;;3.47;57.39;98934.19;4940812;28;122928;-86
2022/01/07 03:38:04;;;;;;;5.90;4.50;;;3.00;82.90;;;3.44;57.25;98930.09;4956846;28;115418;-86
2022/01/07 03:40:32;;;;;;;6.10;4.33;;;3.00;82.90;;;3.43;57.20;98939.34;4986038;28;114770;-84
2022/01/07 03:42:58;;;;;;;7.10;4.23;;;3.00;82.90;;;3.43;56.88;98939.34;4949731;28;124138;-83
2022/01/07 03:45:25;;;;;;;6.63;4.50;;;3.00;83.00;;;3.42;57.03;98931.44;4951822;28;123534;-85
2022/01/07 03:47:52;;;;;;;7.27;4.37;;;3.00;83.00;;;3.43;57.40;98928.41;4952562;28;114445;-82
2022/01/07 03:50:25;;;;;;;5.90;4.20;;;2.90;82.80;;;3.43;57.18;98939.34;4956116;28;113874;-84
2022/01/07 03:52:54;;;;;;;5.53;4.03;;;3.90;83.60;;;3.40;56.95;98933.59;4953412;28;123396;-83
2022/01/07 03:55:24;;;;;;;6.40;3.97;;;2.90;82.60;;;3.38;56.83;98933.84;4953812;28;123769;-85
2022/01/07 03:57:51;;;;;;;7.10;4.30;;;2.90;82.60;;;3.36;56.96;98933.31;4986876;28;113766;-84
2022/01/07 04:00:39;;;;;;;5.87;4.17;;;2.90;82.50;;;3.37;57.11;98934.94;4952971;28;114181;-82
2022/01/07 04:03:11;;;;;;;5.83;3.80;;;2.90;82.50;;;3.34;57.13;98929.19;4938198;28;123745;-86
2022/01/07 04:05:40;;;;;;;8.70;4.13;;;2.90;82.40;;;3.33;56.60;98933.81;4982616;28;123564;-85
2022/01/07 04:08:08;;;;;;;5.63;3.93;;;2.90;82.50;;;3.31;56.33;98936.00;4962819;28;113656;-83
2022/01/07 04:10:37;;;;;;;5.77;3.43;;;2.80;82.10;;;3.28;56.84;98931.06;4952476;28;114768;-84
2022/01/07 04:13:05;;;;;;;7.20;3.80;;;2.80;82.20;;;3.26;56.63;98936.78;4971820;28;122508;-85
2022/01/07 04:15:32;;;;;;;8.97;3.77;;;2.80;82.20;;;3.25;56.65;98942.47;4962963;28;123788;-83
2022/01/07 04:18:01;;;;;;;6.43;3.63;;;2.80;82.10;;;3.23;56.38;98931.84;4972427;28;114525;-86
2022/01/07 04:20:31;;;;;;;5.17;3.97;;;3.50;82.70;;;3.25;56.56;98926.94;4944615;28;113708;-85
2022/01/07 04:22:58;;;;;;;4.73;3.93;;;2.80;82.10;;;3.24;56.77;98925.28;4936514;28;123928;-87
2022/01/07 04:25:27;;;;;;;5.60;3.70;;;2.80;82.70;;;3.23;56.43;98931.84;4954996;28;122897;-86
2022/01/07 04:27:58;;;;;;;4.70;3.57;;;2.80;82.10;;;3.23;56.50;98928.28;4951356;28;115481;-83
2022/01/07 04:30:31;;;;;;;7.80;4.33;;;2.70;81.90;;;3.21;56.63;98935.91;4985557;28;114580;-80
2022/01/07 04:32:58;;;;;;;6.80;4.47;;;2.70;82.50;;;3.15;56.68;98939.69;4982758;28;123799;-84
2022/01/07 04:35:26;;;;;;;6.37;4.03;;;3.10;82.10;;;3.07;56.47;98939.06;4949619;28;123689;-85
2022/01/07 04:37:53;;;;;;;7.03;4.20;;;3.20;82.20;;;3.05;56.71;98938.50;4951713;28;114358;-81
2022/01/07 04:40:22;;;;;;;4.57;3.50;;;2.70;81.80;;;3.06;56.73;98934.72;4966030;28;112799;-83
2022/01/07 04:42:49;;;;;;;4.63;3.87;;;2.60;81.70;;;3.10;56.16;98943.19;4950175;28;123963;-84
2022/01/07 04:45:17;;;;;;;5.00;3.80;;;2.60;81.80;;;3.12;56.51;98941.03;4948790;28;124516;-82
2022/01/07 04:47:44;;;;;;;5.40;3.60;;;2.70;81.90;;;3.14;56.72;98948.94;4954988;28;114386;-85
2022/01/07 04:50:18;;;;;;;4.37;3.70;;;2.60;81.80;;;3.17;56.56;98952.00;4955704;28;113961;-81
2022/01/07 04:52:45;;;;;;;8.20;4.70;;;2.70;82.00;;;3.17;56.16;98945.69;4951835;28;122626;-85
2022/01/07 04:55:16;;;;;;;9.83;4.87;;;3.10;82.30;;;3.15;56.53;98948.69;4954273;28;123729;-83
2022/01/07 04:57:44;;;;;;;9.57;4.50;;;3.70;82.70;;;3.13;56.39;98950.03;4938209;28;114158;-86
2022/01/07 05:00:13;;;;;;;7.10;4.00;;;2.70;81.80;;;3.12;56.31;98945.66;4959478;28;112330;-84
2022/01/07 05:02:41;;;;;;;9.07;4.63;;;2.70;81.80;;;3.08;56.48;98953.53;4938091;28;123976;-85
2022/01/07 05:05:08;;;;;;;8.33;4.70;;;2.60;81.70;;;3.08;56.29;98957.09;4954282;28;123774;-85
2022/01/07 05:07:36;;;;;;;5.53;3.97;;;2.60;81.70;;;3.05;56.43;98957.63;4945740;28;114341;-83
2022/01/07 05:10:09;;;;;;;8.40;4.70;;;2.60;81.70;;;3.04;56.64;98955.97;4958658;28;113082;-86
2022/01/07 05:12:36;;;;;;;7.03;4.80;;;2.60;81.70;;;2.99;56.64;98949.66;4948565;28;124140;-86
2022/01/07 05:15:05;;;;;;;8.73;4.60;;;2.60;81.70;;;2.93;56.84;98958.84;4952273;28;123598;-84
2022/01/07 05:17:33;;;;;;;6.40;4.23;;;2.50;81.60;;;2.88;56.59;98955.00;4958970;28;115661;-84
2022/01/07 05:20:00;;;;;;;7.93;4.60;;;2.50;81.60;;;2.87;56.78;98955.25;4957277;28;115030;-84
2022/01/07 05:22:28;;;;;;;8.50;4.67;;;2.50;81.80;;;2.87;56.92;98963.44;4951810;28;122301;-84
2022/01/07 05:24:55;;;;;;;5.67;4.03;;;2.40;81.80;;;2.87;56.90;98953.38;4949472;28;123056;-84
2022/01/07 05:27:22;;;;;;;6.80;4.70;;;2.40;81.90;;;2.86;56.51;98957.16;4965120;28;113955;-85
2022/01/07 05:29:49;;;;;;;6.80;4.70;;;2.40;82.00;;;2.82;56.94;98953.31;4949885;28;113767;-84
2022/01/07 05:32:16;;;;;;;6.13;4.47;;;2.40;82.00;;;2.77;57.00;98963.38;4949121;28;124016;-85
2022/01/07 05:34:42;;;;;;;7.33;4.70;;;2.30;82.00;;;2.77;57.23;98950.53;4964187;28;122920;-84
2022/01/07 05:37:10;;;;;;;8.80;4.60;;;2.30;82.10;;;2.76;57.27;98954.34;4949423;28;114163;-83
2022/01/07 05:39:37;;;;;;;7.60;5.03;;;1.20;81.20;;;2.77;57.22;98952.44;4949209;28;114164;-82
2022/01/07 05:42:04;;;;;;;11.33;5.23;;;2.30;82.20;;;2.78;57.45;98945.91;4950153;28;123893;-84
2022/01/07 05:44:32;;;;;;;9.23;5.10;;;2.30;82.30;;;2.78;57.40;98944.00;4986090;28;122912;-83
2022/01/07 05:46:59;;;;;;;7.70;4.73;;;2.30;82.30;;;2.77;57.31;98947.00;4957176;28;114343;-84
2022/01/07 05:49:25;;;;;;;8.90;6.20;;;2.30;82.40;;;2.73;57.33;98943.94;4949940;28;113142;-82
2022/01/07 05:51:52;;;;;;;6.20;4.87;;;2.30;82.50;;;2.69;57.28;98936.53;4942222;28;123970;-84
2022/01/07 05:54:19;;;;;;;10.10;5.60;;;2.30;82.50;;;2.67;57.71;98927.78;4951293;28;122895;-83
2022/01/07 05:56:48;;;;;;;12.07;6.50;;;2.20;82.50;;;2.64;57.56;98932.69;4953167;28;112979;-85
2022/01/07 05:59:16;;;;;;;8.93;6.10;;;2.20;82.60;;;2.62;57.75;98934.00;4953430;28;113755;-84
2022/01/07 06:01:43;;;;;;;9.93;5.83;;;2.20;82.80;;;2.59;57.73;98927.16;4950512;28;123971;-84
2022/01/07 06:04:10;;;;;;;8.73;5.40;;;2.20;82.90;;;2.62;57.75;98925.81;4949477;28;123824;-83
2022/01/07 06:06:36;;;;;;;8.60;4.97;;;2.20;83.20;;;2.61;57.75;98927.75;4949760;28;115150;-86
2022/01/07 06:09:03;;;;;;;10.57;5.40;;;2.20;83.20;;;2.63;57.93;98927.47;4947745;28;114472;-83
2022/01/07 06:11:29;;;;;;;8.20;5.53;;;2.20;83.40;;;2.65;57.91;98919.84;4945146;28;125107;-85
2022/01/07 06:14:14;;;;;;;8.97;5.67;;;2.20;83.60;;;2.70;58.10;98932.72;4950712;28;122746;-83
2022/01/07 06:16:41;;;;;;;9.13;5.83;;;2.20;83.60;;;2.67;58.28;98925.88;4958891;28;114513;-83
2022/01/07 06:19:07;;;;;;;8.43;5.43;;;2.20;83.60;;;2.63;58.23;98924.72;4950276;28;114190;-81
2022/01/07 06:21:34;;;;;;;9.63;6.20;;;2.20;83.60;;;2.61;58.17;98922.28;4953119;28;124788;-83
2022/01/07 06:24:01;;;;;;;9.97;6.70;;;2.20;83.70;;;2.60;58.73;98923.34;4959207;28;124317;-82
2022/01/07 06:26:27;;;;;;;9.27;5.67;;;2.10;83.90;;;2.61;58.60;98933.19;4955152;28;113975;-83
2022/01/07 06:28:55;;;;;;;8.57;5.77;;;2.20;84.00;;;2.64;58.60;98926.41;4953248;28;114319;-81
2022/01/07 06:31:21;;;;;;;9.70;5.77;;;2.20;84.00;;;2.64;58.98;98921.75;4950297;28;123929;-83
2022/01/07 06:33:48;;;;;;;10.50;5.93;;;2.20;84.10;;;2.64;58.89;98927.22;4952208;28;123847;-85
2022/01/07 06:36:34;;;;;;;11.80;7.07;;;2.20;84.20;;;2.69;58.85;98911.97;4976308;28;113314;-84
2022/01/07 06:39:03;;;;;;;15.63;7.00;;;2.20;84.20;;;2.65;58.70;98915.22;4955745;28;113872;-83
2022/01/07 06:41:31;;;;;;;10.17;7.30;;;2.20;84.30;;;2.64;58.58;98913.59;4957209;28;123134;-82
2022/01/07 06:43:57;;;;;;;15.37;6.40;;;2.20;84.30;;;2.65;58.79;98917.94;4952897;28;123677;-80
2022/01/07 06:47:01;;;;;;;12.20;6.03;;;2.20;84.40;;;2.72;58.63;98917.75;4952702;28;114013;-83
2022/01/07 06:49:28;;;;;;;11.17;6.70;;;2.20;84.50;;;2.68;59.03;98922.06;4951191;28;113717;-84
2022/01/07 06:51:55;;;;;;;10.33;6.13;;;2.20;84.50;;;2.68;58.93;98905.69;4936785;28;124093;-84
2022/01/07 06:54:24;;;;;;;11.00;7.00;;;2.20;84.60;;;2.74;58.96;98912.03;4965574;28;122478;-85
2022/01/07 06:56:51;;;;;;;9.30;5.83;;;2.20;84.70;;;2.74;58.81;98914.75;4981558;28;114039;-84
2022/01/07 06:59:18;;;;;;;10.03;6.00;;;2.30;84.80;;;2.77;58.40;98914.25;4949975;28;114991;-85
2022/01/07 07:01:47;;;;;;;10.90;7.20;;;2.30;84.80;;;2.75;59.08;98909.03;4952973;28;122313;-85
2022/01/07 07:04:15;;;;;;;9.73;6.93;;;2.20;84.70;;;2.73;59.29;98903.00;4974133;28;124834;-80
2022/01/07 07:06:43;;;;;;;9.37;6.23;;;2.20;84.70;;;2.74;58.88;98910.13;4949197;28;114222;-84
2022/01/07 07:09:11;;;;;;;8.47;5.83;;;2.30;84.80;;;2.76;58.89;98904.41;4945485;28;114789;-84
2022/01/07 07:11:39;;;;;;;10.60;7.00;;;2.30;84.70;;;2.77;58.90;98892.44;4977567;28;123959;-84
2022/01/07 07:14:06;;;;;;;9.90;6.10;;;3.70;86.00;;;2.76;59.15;98890.75;4940302;28;124806;-86
2022/01/07 07:16:33;;;;;;;9.43;6.13;;;2.30;84.70;;;2.80;59.00;98897.38;4940713;28;114202;-83
2022/01/07 07:19:02;;;;;;;10.10;6.83;;;3.20;85.50;;;2.82;58.95;98881.53;4948963;28;112965;-84
2022/01/07 07:21:29;;;;;;;11.40;6.47;;;2.30;84.70;;;2.82;58.89;98878.81;4942693;28;123850;-84
2022/01/07 07:23:56;;;;;;;6.83;5.67;;;2.30;84.60;;;2.83;58.61;98881.28;4947393;28;125480;-84
2022/01/07 07:26:24;;;;;;;8.83;5.70;;;2.30;84.60;;;2.84;58.83;98880.19;4946885;28;114051;-85
2022/01/07 07:28:50;;;;;;;10.97;6.47;;;2.40;84.70;;;2.84;58.79;98876.66;4945850;28;114118;-84
2022/01/07 07:31:18;;;;;;;12.70;7.40;;;2.30;84.50;;;2.80;58.75;98876.34;4943545;28;124026;-87
2022/01/07 07:36:27;;;;;;;12.60;7.53;;;2.30;84.40;;;2.78;58.78;98883.16;4969741;28;115076;-84
2022/01/07 07:39:04;;;;;;;13.13;6.87;;;2.50;84.80;;;2.78;58.95;98873.06;4942968;28;114118;-85
2022/01/07 07:41:32;;;;;;;9.30;6.50;;;2.30;84.70;;;2.77;59.08;98881.53;4947126;28;123443;-85
2022/01/07 07:44:00;;;;;;;12.00;7.43;;;2.30;84.70;;;2.78;59.04;98875.78;4944642;28;123868;-86
2022/01/07 07:46:31;;;;;;;10.17;6.30;;;2.40;84.90;;;2.81;59.20;98882.63;4950724;28;114466;-86
2022/01/07 07:49:02;;;;;;;9.07;6.60;;;2.30;84.80;;;2.82;58.94;98868.75;4965402;28;114236;-86
2022/01/07 07:51:51;;;;;;;10.00;6.83;;;2.30;84.80;;;2.84;59.28;98873.91;4979261;28;124421;-87
2022/01/07 07:54:36;;;;;;;12.30;6.17;;;2.40;84.80;;;2.91;58.51;98866.34;4945568;28;124666;-87
2022/01/07 07:57:04;;;;;;;8.33;5.47;;;2.40;84.80;;;2.93;58.87;98866.91;4949030;28;113233;-89
2022/01/07 07:59:33;;;;;;;7.60;5.47;;;2.40;84.70;;;2.99;59.05;98867.78;4950126;28;112797;-88
2022/01/07 08:02:01;;;;;;;10.40;6.17;;;2.50;84.70;;;3.06;58.70;98865.63;4951057;28;123005;-87
2022/01/07 08:04:30;;;;;;;8.13;6.07;;;2.50;84.80;;;3.12;58.59;98853.69;4947245;28;123651;-87
2022/01/07 08:06:56;;;;;;;8.57;6.30;;;2.60;84.70;;;3.17;58.50;98853.72;4940401;28;113204;-87
2022/01/07 08:09:24;;;;;;;5.77;5.00;;;2.70;84.80;;;3.22;58.48;98845.53;4951217;28;112375;-86
2022/01/07 08:11:53;;;;;;;11.87;5.30;;;2.70;84.70;;;3.30;58.62;98852.41;4946078;28;122997;-88
2022/01/07 08:17:06;;;;;;;8.50;5.87;;;2.80;84.60;;;3.43;57.97;98845.66;4932361;28;114124;-87
2022/01/07 08:19:35;;;;;;;7.20;5.17;;;3.60;85.20;;;3.48;57.99;98842.97;4931525;28;113304;-88
2022/01/07 08:22:20;;;;;;;9.10;5.40;;;2.90;84.60;;;3.57;58.38;98837.81;4937450;28;123021;-85
2022/01/07 08:24:47;;;;;;;7.67;5.00;;;3.00;84.50;;;3.61;58.00;98838.94;4943761;28;123682;-85
2022/01/07 08:27:14;;;;;;;7.80;5.13;;;3.00;84.50;;;3.65;57.86;98843.59;4947716;28;113360;-86
2022/01/07 08:29:43;;;;;;;8.50;5.43;;;3.10;84.40;;;3.70;57.79;98835.41;4958846;28;113302;-86
2022/01/07 08:34:58;;;;;;;9.40;5.90;;;3.20;84.20;;;3.73;57.41;98829.44;4961098;28;123282;-83
2022/01/07 08:37:27;;;;;;;7.43;5.00;;;3.20;84.10;;;3.76;57.53;98828.06;4950919;28;115357;-85
2022/01/07 08:39:55;;;;;;;11.07;7.00;;;3.20;83.90;;;3.76;57.10;98822.59;4950988;28;114648;-84
2022/01/07 08:42:26;;;;;;;8.00;5.40;;;3.20;83.70;;;3.78;57.27;98820.44;4949122;28;124054;-87
2022/01/07 08:44:55;;;;;;;10.40;5.53;;;3.20;83.70;;;3.79;56.94;98824.81;4949089;28;124095;-85
2022/01/07 08:47:25;;;;;;;7.40;5.27;;;3.20;83.50;;;3.80;56.82;98836.56;4951659;28;114038;-86
2022/01/07 08:49:56;;;;;;;8.30;5.63;;;3.30;83.50;;;3.82;57.12;98831.66;4953586;28;114075;-86
2022/01/07 08:52:25;;;;;;;10.03;5.50;;;3.30;83.40;;;3.80;56.86;98834.66;4949690;28;123337;-87
2022/01/07 08:54:51;;;;;;;8.70;6.40;;;3.30;83.30;;;3.81;56.89;98836.28;4947868;28;122647;-87
2022/01/07 08:57:20;;;;;;;10.53;5.93;;;3.30;83.10;;;3.82;57.16;98828.94;4932045;28;113406;-87
2022/01/07 08:59:50;;;;;;;7.20;4.53;;;3.30;83.10;;;3.84;57.07;98826.72;4951567;28;113131;-86
2022/01/07 09:02:16;;;;;;;7.83;5.53;;;4.20;83.90;;;3.86;56.62;98830.84;4948065;28;124307;-84
2022/01/07 09:05:02;;;;;;;6.93;5.10;;;3.30;83.00;;;3.92;56.40;98835.25;4949196;28;123769;-87
2022/01/07 09:07:28;;;;;;;7.33;5.63;;;3.40;83.10;;;3.91;56.70;98825.41;4957427;28;114174;-87
2022/01/07 09:09:55;;;;;;;8.90;5.60;;;3.40;83.00;;;3.95;56.46;98831.16;4947370;28;113815;-87
2022/01/07 09:12:21;;;;;;;9.47;5.20;;;3.40;82.90;;;3.99;56.55;98830.34;4979734;28;123170;-85
2022/01/07 09:14:48;;;;;;;6.70;5.27;;;3.50;83.00;;;4.04;56.54;98821.34;4947485;28;124236;-86
2022/01/07 09:17:14;;;;;;;5.97;4.67;;;3.50;82.80;;;4.07;56.28;98836.38;4948490;28;114151;-86
2022/01/07 09:19:41;;;;;;;7.30;4.83;;;3.50;82.80;;;4.09;56.12;98826.00;4949594;28;113701;-86
2022/01/07 09:22:07;;;;;;;6.73;4.77;;;3.50;82.70;;;4.10;56.53;98819.44;4956945;28;123188;-85
2022/01/07 09:24:36;;;;;;;7.73;5.30;;;4.50;83.40;;;4.12;56.11;98817.25;4952805;28;123893;-85
2022/01/07 09:27:03;;;;;;;8.77;4.77;;;3.60;82.50;;;4.13;56.32;98816.97;4946405;28;114925;-84
2022/01/07 09:29:49;;;;;;;7.27;4.50;;;3.60;82.40;;;4.20;55.85;98816.72;4979658;28;114349;-83
2022/01/07 09:32:18;;;;;;;6.13;4.00;;;3.60;82.40;;;4.18;55.89;98822.47;4978188;28;123869;-85
2022/01/07 09:34:45;;;;;;;7.83;4.83;;;3.70;82.30;;;4.21;56.24;98818.38;4951367;28;122519;-85
2022/01/07 09:37:14;;;;;;;10.10;5.20;;;3.70;82.20;;;4.26;56.12;98815.66;4936055;28;113197;-86
2022/01/07 09:40:02;;;;;;;7.67;5.10;;;3.70;82.10;;;4.30;55.62;98811.28;4950178;28;112872;-86
2022/01/07 09:42:28;;;;;;;6.00;4.77;;;3.70;82.00;;;4.29;55.99;98801.44;4957684;28;123331;-86
2022/01/07 09:44:56;;;;;;;7.13;4.77;;;3.80;81.90;;;4.31;55.22;98801.97;4949627;28;122997;-85
2022/01/07 09:47:26;;;;;;;10.30;4.53;;;3.80;81.80;;;4.35;55.41;98803.09;4937758;28;113647;-85
2022/01/07 09:49:53;;;;;;;7.77;5.00;;;3.80;81.70;;;4.37;55.53;98800.88;4949035;28;113982;-86
2022/01/07 09:53:03;;;;;;;6.83;4.40;;;3.80;81.60;;;4.46;55.05;98794.88;4952234;28;123772;-86
2022/01/07 09:55:52;;;;;;;10.17;4.97;;;3.90;81.60;;;4.46;54.68;98794.88;4965354;28;123829;-88
2022/01/07 09:58:22;;;;;;;6.37;3.90;;;3.90;81.20;;;4.42;54.88;98781.75;4957228;28;113552;-88
2022/01/07 10:00:49;;;;;;;5.87;4.37;;;3.90;81.20;;;4.45;54.89;98790.50;4953415;28;114395;-87
2022/01/07 10:03:56;;;;;;;7.10;4.93;;;3.90;81.20;;;4.49;54.62;98791.63;4948600;28;123989;-88
2022/01/07 10:06:27;;;;;;;6.70;4.00;;;3.90;81.10;;;4.46;55.11;98787.50;4946447;28;124025;-87
2022/01/07 10:09:07;;;;;;;7.40;4.97;;;4.10;81.10;;;4.48;54.43;98779.03;4953651;28;113429;-85
2022/01/07 10:11:34;;;;;;;5.90;4.73;;;3.90;80.80;;;4.43;54.47;98777.94;4958473;28;112916;-81
2022/01/07 10:14:22;;;;;;;4.87;4.27;;;4.00;80.90;;;4.51;55.00;98775.72;4954617;28;123443;-88
2022/01/07 10:16:58;;;;;;;6.60;4.77;;;5.20;82.10;;;4.55;54.56;98774.09;4962222;28;122974;-84
2022/01/07 10:19:37;;;;;;;5.00;4.40;;;4.00;81.00;;;4.55;55.28;98765.91;4951192;28;114698;-87
2022/01/07 10:22:10;;;;;;;5.77;4.10;;;4.00;80.90;;;4.54;54.62;98772.44;4957796;28;115505;-86
2022/01/07 10:25:02;;;;;;;7.77;4.87;;;4.00;81.00;;;4.55;55.17;98774.91;4949394;28;124056;-87
2022/01/07 10:27:37;;;;;;;7.70;4.77;;;4.00;81.10;;;4.52;55.04;98763.72;4948547;28;123583;-85
2022/01/07 10:30:25;;;;;;;7.53;4.80;;;4.00;81.20;;;4.56;55.20;98759.31;4949214;28;114694;-87
2022/01/07 10:32:56;;;;;;;6.07;4.33;;;4.00;81.50;;;4.55;55.71;98758.50;4945259;28;113821;-86
2022/01/07 10:35:26;;;;;;;6.83;4.90;;;5.10;82.60;;;4.55;55.86;98758.50;4948618;28;123988;-85
2022/01/07 10:38:02;;;;;;;7.77;4.63;;;4.00;81.80;;;4.57;55.63;98753.59;4947713;28;124027;-84
2022/01/07 10:40:38;;;;;;;6.60;4.30;;;4.10;82.20;;;4.59;56.71;98739.63;4939257;28;114276;-86
2022/01/07 10:43:35;;;;;;;6.13;4.27;;;4.10;82.40;;;4.62;56.11;98741.78;4946784;28;113986;-86